createdAt,value
2022-08-08T00:00:53.738Z,8.55
2022-08-08T00:08:33.425Z,9.85
2022-08-08T00:16:12.495Z,11.60
2022-08-08T00:23:52.684Z,14.52
2022-08-08T00:32:20.427Z,13.75
2022-08-08T00:41:07.609Z,14.63
2022-08-08T00:48:29.086Z,13.52
2022-08-08T00:56:46.273Z,15.27
2022-08-08T01:04:50.814Z,17.00
2022-08-08T01:13:15.140Z,13.85
2022-08-08T01:21:07.307Z,16.05
2022-08-08T01:29:35.578Z,21.30
2022-08-08T01:37:59.994Z,16.05
2022-08-08T01:45:58.343Z,19.45
2022-08-08T01:55:17.134Z,23.98
2022-08-08T02:02:04.971Z,23.65
2022-08-08T02:10:11.693Z,24.77
2022-08-08T02:17:57.594Z,23.10
2022-08-08T02:25:46.856Z,26.10
2022-08-08T02:34:00.243Z,29.85
2022-08-08T02:42:07.854Z,24.20
2022-08-08T02:50:18.204Z,24.52
2022-08-08T02:58:42.274Z,27.52
2022-08-08T03:07:02.420Z,23.75
2022-08-08T03:15:57.395Z,21.65
2022-08-08T03:23:00.616Z,25.20
2022-08-08T03:30:38.361Z,28.98
2022-08-08T03:38:57.942Z,24.98
2022-08-08T03:46:09.701Z,24.65
2022-08-08T03:53:47.739Z,23.67
2022-08-08T04:01:24.515Z,34.45
2022-08-08T04:09:10.595Z,33.33
2022-08-08T04:16:49.184Z,22.90
2022-08-08T04:24:29.642Z,20.65
2022-08-08T04:32:06.826Z,20.27
2022-08-08T04:40:05.418Z,21.67
2022-08-08T04:47:46.121Z,23.38
2022-08-08T04:55:22.129Z,23.23
2022-08-08T05:02:56.828Z,20.35
2022-08-08T05:10:32.951Z,21.93
2022-08-08T05:18:07.105Z,17.67
2022-08-08T05:25:43.234Z,8.53
2022-08-08T05:33:17.837Z,7.07
2022-08-08T05:40:58.174Z,5.70
2022-08-08T05:48:34.633Z,5.80
2022-08-08T05:56:15.218Z,7.00
2022-08-08T06:03:53.673Z,7.28
2022-08-08T06:11:33.212Z,6.57
2022-08-08T06:19:16.197Z,5.47
2022-08-08T06:26:58.963Z,4.03
2022-08-08T06:34:40.273Z,6.30
2022-08-08T06:42:16.474Z,4.03
2022-08-08T06:49:56.667Z,3.60
2022-08-08T06:57:54.722Z,4.25
2022-08-08T07:05:29.857Z,3.77
2022-08-08T07:13:18.725Z,4.00
2022-08-08T07:20:56.004Z,6.05
2022-08-08T07:28:34.283Z,3.33
2022-08-08T07:36:10.499Z,3.85
2022-08-08T07:43:53.496Z,7.38
2022-08-08T07:51:53.258Z,3.42
2022-08-08T07:59:27.942Z,6.10
2022-08-08T08:07:12.545Z,3.80
2022-08-08T08:14:55.739Z,4.25
2022-08-08T08:22:31.336Z,4.10
2022-08-08T08:30:10.369Z,5.93
2022-08-08T08:38:13.000Z,5.00
2022-08-08T08:45:40.679Z,2.85
2022-08-08T08:53:54.991Z,2.75
2022-08-08T09:01:14.934Z,6.47
2022-08-08T09:08:55.186Z,5.85
2022-08-08T09:16:32.842Z,3.40
2022-08-08T09:24:07.313Z,3.55
2022-08-08T09:31:56.035Z,4.35
2022-08-08T09:39:36.775Z,4.85
2022-08-08T09:47:26.501Z,3.33
2022-08-08T09:55:09.470Z,4.68
2022-08-08T10:02:54.145Z,2.20
2022-08-08T10:10:30.302Z,4.78
2022-08-08T10:18:13.096Z,3.78
2022-08-08T10:25:57.201Z,7.38
2022-08-08T10:33:38.593Z,5.85
2022-08-08T10:41:35.419Z,4.47
2022-08-08T10:50:02.278Z,2.78
2022-08-08T10:57:27.558Z,2.40
2022-08-08T11:05:18.116Z,3.85
2022-08-08T11:13:18.703Z,5.13
2022-08-08T11:20:52.228Z,2.42
2022-08-08T11:28:29.569Z,6.53
2022-08-08T11:36:07.059Z,4.35
2022-08-08T11:43:43.529Z,3.22
2022-08-08T11:51:37.959Z,4.82
2022-08-08T11:59:14.381Z,4.10
2022-08-08T12:06:49.658Z,3.03
2022-08-08T12:14:24.122Z,4.18
2022-08-08T12:22:13.504Z,3.22
2022-08-08T12:30:02.053Z,5.10
2022-08-08T12:37:40.802Z,3.78
2022-08-08T12:45:58.543Z,4.70
2022-08-08T12:53:24.685Z,4.03
2022-08-08T13:01:11.055Z,2.58
2022-08-08T13:08:53.155Z,2.35
2022-08-08T13:16:30.005Z,2.45
2022-08-08T13:24:07.925Z,3.53
2022-08-08T13:31:53.401Z,3.72
2022-08-08T13:39:28.651Z,3.35
2022-08-08T13:47:05.016Z,3.10
2022-08-08T13:54:49.434Z,2.03
2022-08-08T14:02:30.955Z,4.85
2022-08-08T14:10:11.773Z,3.22
2022-08-08T14:17:58.489Z,3.55
2022-08-08T14:25:46.735Z,3.58
2022-08-08T14:33:36.578Z,2.47
2022-08-08T14:41:17.718Z,2.70
2022-08-08T14:49:31.881Z,5.90
2022-08-08T14:57:08.858Z,2.42
2022-08-08T15:04:45.593Z,2.42
2022-08-08T15:12:36.572Z,6.50
2022-08-08T15:20:14.162Z,2.60
2022-08-08T15:28:05.184Z,5.72
2022-08-08T15:35:43.395Z,8.05
2022-08-08T15:43:35.728Z,5.13
2022-08-08T15:51:11.646Z,5.63
2022-08-08T15:58:50.704Z,2.38
2022-08-08T16:06:28.774Z,3.58
2022-08-08T16:14:11.388Z,2.38
2022-08-08T16:21:54.076Z,3.22
2022-08-08T16:29:37.352Z,2.50
2022-08-08T16:37:27.859Z,2.75
2022-08-08T16:45:11.461Z,3.50
2022-08-08T17:00:52.941Z,2.33
2022-08-08T17:08:27.171Z,3.95
2022-08-08T17:16:02.356Z,3.20
2022-08-08T17:24:01.437Z,2.17
2022-08-08T17:31:45.142Z,5.13
2022-08-08T17:39:46.056Z,5.50
2022-08-08T17:47:23.172Z,8.10
2022-08-08T17:54:58.654Z,7.40
2022-08-08T18:02:33.974Z,4.30
2022-08-08T18:10:10.218Z,3.13
2022-08-08T18:25:39.684Z,4.05
2022-08-08T18:33:36.620Z,2.88
2022-08-08T18:41:10.143Z,4.73
2022-08-08T18:48:45.508Z,2.53
2022-08-08T18:56:22.992Z,3.25
2022-08-08T19:04:09.908Z,3.17
2022-08-08T19:11:46.243Z,4.00
2022-08-08T19:19:22.134Z,3.70
2022-08-08T19:26:57.889Z,3.03
2022-08-08T19:34:38.767Z,4.30
2022-08-08T19:42:15.467Z,4.05
2022-08-08T19:49:59.734Z,5.07
2022-08-08T20:05:12.113Z,3.47
2022-08-08T20:12:59.140Z,5.13
2022-08-08T20:20:42.490Z,4.47
2022-08-08T20:28:17.486Z,2.78
2022-08-08T20:35:58.585Z,4.38
2022-08-08T20:43:43.629Z,4.30
2022-08-08T20:51:23.640Z,3.57
2022-08-08T20:58:58.989Z,5.53
2022-08-08T21:06:52.714Z,6.35
2022-08-08T21:14:33.499Z,4.15
2022-08-08T21:22:09.658Z,4.93
2022-08-08T21:30:03.698Z,5.95
2022-08-08T21:37:54.329Z,7.80
2022-08-08T21:47:59.658Z,5.15
2022-08-08T21:54:32.000Z,4.53
2022-08-08T22:01:22.446Z,5.82
2022-08-08T22:09:08.409Z,3.40
2022-08-08T22:16:42.732Z,4.22
2022-08-08T22:24:18.016Z,5.07
2022-08-08T22:32:03.513Z,4.97
2022-08-08T22:39:45.560Z,3.75
2022-08-08T22:47:36.538Z,3.25
2022-08-08T22:55:14.316Z,4.40
2022-08-08T23:02:51.247Z,2.75
2022-08-08T23:10:27.645Z,4.60
2022-08-08T23:18:01.490Z,6.07
2022-08-08T23:25:48.290Z,4.90
2022-08-08T23:34:15.976Z,3.53
2022-08-08T23:41:24.570Z,3.80
2022-08-08T23:49:18.102Z,6.53
2022-08-08T23:56:54.249Z,3.35
